Airport View

Enter AWOS ICAO identifier for current METAR.

ex. KFNL

KPNM 111956Z AUTO 00000KT 10SM CLR M16/M24 A3041 RMK AO2

11 Dec 2019 20:28

Frequency: 119.025

Phone: 763-389-0615

Other Area AWOS: KCBG - KSTC - KJMR - KMGG

TAF KSTC 111729Z 1118/1218 24004KT P6SM FEW110 FM112300 12004KT P6SM SCT050 BKN090 FM120400 11006KT 3SM -SN BR OVC040 FM120900 09008KT 1 1/2SM -SN BR BKN008 OVC015 FM121500 06006KT 5SM -SN BR OVC008